sensor_id;sensor_type;location;lat;lon;timestamp;P1;P2;P0
55304;PMS7003;65692;51.378;19.824;2023-01-28T00:02:25;68.75;47.00;32.50
55304;PMS7003;65692;51.378;19.824;2023-01-28T00:04:52;63.25;46.50;30.00
55304;PMS7003;65692;51.378;19.824;2023-01-28T00:07:19;51.75;44.50;30.00
55304;PMS7003;65692;51.378;19.824;2023-01-28T00:09:46;51.50;43.50;28.00
55304;PMS7003;65692;51.378;19.824;2023-01-28T00:12:12;69.50;50.25;33.25
55304;PMS7003;65692;51.378;19.824;2023-01-28T00:14:39;67.50;49.00;33.00
55304;PMS7003;65692;51.378;19.824;2023-01-28T00:17:05;67.00;48.00;30.25
55304;PMS7003;65692;51.378;19.824;2023-01-28T00:19:32;56.50;45.00;30.25
55304;PMS7003;65692;51.378;19.824;2023-01-28T00:21:58;65.50;42.75;27.75
55304;PMS7003;65692;51.378;19.824;2023-01-28T00:24:25;58.50;45.00;30.00
55304;PMS7003;65692;51.378;19.824;2023-01-28T00:26:51;60.50;43.50;27.00
55304;PMS7003;65692;51.378;19.824;2023-01-28T00:29:18;64.25;48.00;26.50
55304;PMS7003;65692;51.378;19.824;2023-01-28T00:31:44;69.75;48.50;33.00
55304;PMS7003;65692;51.378;19.824;2023-01-28T00:34:11;71.50;52.00;34.00
55304;PMS7003;65692;51.378;19.824;2023-01-28T00:36:37;57.75;48.25;31.50
55304;PMS7003;65692;51.378;19.824;2023-01-28T00:39:04;57.50;45.75;31.75
55304;PMS7003;65692;51.378;19.824;2023-01-28T00:41:31;64.25;48.25;31.00
55304;PMS7003;65692;51.378;19.824;2023-01-28T00:43:58;67.25;48.00;33.00
55304;PMS7003;65692;51.378;19.824;2023-01-28T00:46:24;59.00;47.75;33.00
55304;PMS7003;65692;51.378;19.824;2023-01-28T00:48:54;69.00;51.25;33.00
55304;PMS7003;65692;51.378;19.824;2023-01-28T00:51:20;78.00;50.00;33.50
55304;PMS7003;65692;51.378;19.824;2023-01-28T00:53:47;60.50;45.00;30.50
55304;PMS7003;65692;51.378;19.824;2023-01-28T00:56:15;53.75;45.00;30.00
55304;PMS7003;65692;51.378;19.824;2023-01-28T00:58:41;19.00;9.75;0.00
55304;PMS7003;65692;51.378;19.824;2023-01-28T01:01:09;58.00;44.50;27.25
55304;PMS7003;65692;51.378;19.824;2023-01-28T01:03:36;62.75;48.25;33.00
55304;PMS7003;65692;51.378;19.824;2023-01-28T01:06:02;47.50;37.00;27.00
55304;PMS7003;65692;51.378;19.824;2023-01-28T01:08:29;40.75;30.75;20.50
55304;PMS7003;65692;51.378;19.824;2023-01-28T01:11:00;51.75;36.50;22.50
55304;PMS7003;65692;51.378;19.824;2023-01-28T01:13:28;37.25;25.50;18.50
55304;PMS7003;65692;51.378;19.824;2023-01-28T01:16:01;40.00;35.50;22.50
55304;PMS7003;65692;51.378;19.824;2023-01-28T01:18:28;43.00;30.75;22.50
55304;PMS7003;65692;51.378;19.824;2023-01-28T01:20:54;36.25;29.50;20.00
55304;PMS7003;65692;51.378;19.824;2023-01-28T01:23:27;37.50;29.00;15.25
55304;PMS7003;65692;51.378;19.824;2023-01-28T01:25:54;44.00;31.00;19.50
55304;PMS7003;65692;51.378;19.824;2023-01-28T01:28:20;39.00;32.00;22.75
55304;PMS7003;65692;51.378;19.824;2023-01-28T01:30:47;38.50;25.25;18.25
55304;PMS7003;65692;51.378;19.824;2023-01-28T01:33:14;36.50;31.25;21.75
55304;PMS7003;65692;51.378;19.824;2023-01-28T01:35:41;30.50;27.00;19.50
55304;PMS7003;65692;51.378;19.824;2023-01-28T01:38:07;29.75;21.00;15.50
55304;PMS7003;65692;51.378;19.824;2023-01-28T01:40:34;24.75;24.75;19.50
55304;PMS7003;65692;51.378;19.824;2023-01-28T01:43:00;40.50;30.00;21.00
55304;PMS7003;65692;51.378;19.824;2023-01-28T01:45:33;41.50;29.50;20.50
55304;PMS7003;65692;51.378;19.824;2023-01-28T01:48:01;29.25;18.75;12.75
55304;PMS7003;65692;51.378;19.824;2023-01-28T01:52:56;43.50;29.00;19.50
55304;PMS7003;65692;51.378;19.824;2023-01-28T01:55:26;35.50;27.50;18.50
55304;PMS7003;65692;51.378;19.824;2023-01-28T01:57:54;31.00;29.00;19.50
55304;PMS7003;65692;51.378;19.824;2023-01-28T02:00:21;30.50;23.00;16.00
55304;PMS7003;65692;51.378;19.824;2023-01-28T02:02:48;39.75;32.50;20.50
55304;PMS7003;65692;51.378;19.824;2023-01-28T02:05:17;44.75;28.50;20.00
55304;PMS7003;65692;51.378;19.824;2023-01-28T02:07:44;40.75;30.25;20.00
55304;PMS7003;65692;51.378;19.824;2023-01-28T02:10:11;45.50;28.50;19.50
55304;PMS7003;65692;51.378;19.824;2023-01-28T02:12:46;34.00;27.75;19.00
55304;PMS7003;65692;51.378;19.824;2023-01-28T02:15:16;45.25;40.25;26.50
55304;PMS7003;65692;51.378;19.824;2023-01-28T02:17:44;41.75;27.25;21.00
55304;PMS7003;65692;51.378;19.824;2023-01-28T02:20:12;41.50;27.75;20.50
55304;PMS7003;65692;51.378;19.824;2023-01-28T02:30:24;30.25;26.25;19.00
55304;PMS7003;65692;51.378;19.824;2023-01-28T02:33:10;38.50;28.00;19.00
55304;PMS7003;65692;51.378;19.824;2023-01-28T02:38:08;31.75;26.50;20.25
55304;PMS7003;65692;51.378;19.824;2023-01-28T02:40:41;35.00;22.75;16.50
55304;PMS7003;65692;51.378;19.824;2023-01-28T02:43:37;34.00;27.25;18.25
55304;PMS7003;65692;51.378;19.824;2023-01-28T02:46:09;41.50;27.00;18.00
55304;PMS7003;65692;51.378;19.824;2023-01-28T02:48:56;33.75;26.50;18.75
55304;PMS7003;65692;51.378;19.824;2023-01-28T02:51:32;36.50;27.00;20.00
55304;PMS7003;65692;51.378;19.824;2023-01-28T02:54:05;32.50;21.50;17.50
55304;PMS7003;65692;51.378;19.824;2023-01-28T02:59:15;36.00;27.25;19.50
55304;PMS7003;65692;51.378;19.824;2023-01-28T03:02:09;27.25;24.00;19.00
55304;PMS7003;65692;51.378;19.824;2023-01-28T03:04:49;33.00;22.00;12.00
55304;PMS7003;65692;51.378;19.824;2023-01-28T03:07:20;38.75;26.00;18.50
55304;PMS7003;65692;51.378;19.824;2023-01-28T03:09:48;29.25;24.75;18.00
55304;PMS7003;65692;51.378;19.824;2023-01-28T03:12:21;30.50;27.50;18.25
55304;PMS7003;65692;51.378;19.824;2023-01-28T03:15:11;43.75;31.50;21.50
55304;PMS7003;65692;51.378;19.824;2023-01-28T03:18:02;30.50;28.00;20.00
55304;PMS7003;65692;51.378;19.824;2023-01-28T03:20:50;43.00;28.50;20.50
55304;PMS7003;65692;51.378;19.824;2023-01-28T03:23:44;35.50;30.75;21.00
55304;PMS7003;65692;51.378;19.824;2023-01-28T03:26:31;33.25;24.50;18.50
55304;PMS7003;65692;51.378;19.824;2023-01-28T03:29:19;34.00;29.25;21.00
55304;PMS7003;65692;51.378;19.824;2023-01-28T03:32:07;34.25;23.00;18.00
55304;PMS7003;65692;51.378;19.824;2023-01-28T03:34:53;37.75;29.50;21.75
55304;PMS7003;65692;51.378;19.824;2023-01-28T03:37:38;36.25;25.50;18.00
55304;PMS7003;65692;51.378;19.824;2023-01-28T03:40:05;28.25;27.75;17.00
55304;PMS7003;65692;51.378;19.824;2023-01-28T03:42:32;43.25;28.25;20.00
55304;PMS7003;65692;51.378;19.824;2023-01-28T03:44:59;30.25;22.50;19.00
55304;PMS7003;65692;51.378;19.824;2023-01-28T03:47:29;38.25;29.25;20.00
55304;PMS7003;65692;51.378;19.824;2023-01-28T03:49:56;33.25;23.00;14.50
55304;PMS7003;65692;51.378;19.824;2023-01-28T03:52:26;40.75;29.00;20.00
55304;PMS7003;65692;51.378;19.824;2023-01-28T03:54:52;36.00;30.00;21.00
55304;PMS7003;65692;51.378;19.824;2023-01-28T03:57:20;44.50;32.25;21.00
55304;PMS7003;65692;51.378;19.824;2023-01-28T03:59:47;37.50;30.25;21.00
55304;PMS7003;65692;51.378;19.824;2023-01-28T04:02:18;40.75;30.50;22.00
55304;PMS7003;65692;51.378;19.824;2023-01-28T04:04:45;33.50;28.50;21.00
55304;PMS7003;65692;51.378;19.824;2023-01-28T04:07:12;36.75;29.00;20.00
55304;PMS7003;65692;51.378;19.824;2023-01-28T04:09:42;44.00;30.50;22.75
55304;PMS7003;65692;51.378;19.824;2023-01-28T04:12:08;46.75;33.50;24.25
55304;PMS7003;65692;51.378;19.824;2023-01-28T04:14:36;40.50;32.50;21.75
55304;PMS7003;65692;51.378;19.824;2023-01-28T04:17:02;41.50;33.50;22.00
55304;PMS7003;65692;51.378;19.824;2023-01-28T04:19:29;48.25;38.00;25.50
55304;PMS7003;65692;51.378;19.824;2023-01-28T04:21:56;42.50;33.50;24.00
55304;PMS7003;65692;51.378;19.824;2023-01-28T04:24:23;37.25;28.00;18.00
55304;PMS7003;65692;51.378;19.824;2023-01-28T04:26:49;33.50;27.00;19.50
55304;PMS7003;65692;51.378;19.824;2023-01-28T04:29:16;49.50;33.00;21.25
55304;PMS7003;65692;51.378;19.824;2023-01-28T04:31:42;53.00;43.50;30.00
55304;PMS7003;65692;51.378;19.824;2023-01-28T04:34:09;49.50;30.25;19.00
55304;PMS7003;65692;51.378;19.824;2023-01-28T04:36:35;40.00;34.25;24.75
55304;PMS7003;65692;51.378;19.824;2023-01-28T04:39:02;33.50;27.50;18.00
55304;PMS7003;65692;51.378;19.824;2023-01-28T04:41:28;37.75;28.75;19.00
55304;PMS7003;65692;51.378;19.824;2023-01-28T04:43:55;39.50;31.75;21.50
55304;PMS7003;65692;51.378;19.824;2023-01-28T04:46:21;42.75;27.25;18.50
55304;PMS7003;65692;51.378;19.824;2023-01-28T04:48:47;38.00;30.50;21.25
55304;PMS7003;65692;51.378;19.824;2023-01-28T04:51:14;42.50;31.00;23.00
55304;PMS7003;65692;51.378;19.824;2023-01-28T04:53:40;39.00;35.25;22.50
55304;PMS7003;65692;51.378;19.824;2023-01-28T04:56:07;37.00;31.00;21.00
55304;PMS7003;65692;51.378;19.824;2023-01-28T04:58:33;40.25;28.00;21.50
55304;PMS7003;65692;51.378;19.824;2023-01-28T05:00:59;45.25;35.75;23.50
55304;PMS7003;65692;51.378;19.824;2023-01-28T05:03:26;41.00;36.75;24.00
55304;PMS7003;65692;51.378;19.824;2023-01-28T05:05:52;41.50;36.50;27.25
55304;PMS7003;65692;51.378;19.824;2023-01-28T05:08:19;59.25;44.00;31.00
55304;PMS7003;65692;51.378;19.824;2023-01-28T05:10:45;43.25;36.75;23.50
55304;PMS7003;65692;51.378;19.824;2023-01-28T05:13:12;62.00;47.50;30.75
55304;PMS7003;65692;51.378;19.824;2023-01-28T05:15:39;42.75;37.00;25.25
55304;PMS7003;65692;51.378;19.824;2023-01-28T05:18:06;40.75;37.25;26.50
55304;PMS7003;65692;51.378;19.824;2023-01-28T05:20:32;63.50;49.00;34.00
55304;PMS7003;65692;51.378;19.824;2023-01-28T05:22:58;72.00;57.00;36.50
55304;PMS7003;65692;51.378;19.824;2023-01-28T05:25:25;77.25;57.25;37.00
55304;PMS7003;65692;51.378;19.824;2023-01-28T05:27:52;62.50;46.75;33.50
55304;PMS7003;65692;51.378;19.824;2023-01-28T05:30:19;39.25;20.50;18.50
55304;PMS7003;65692;51.378;19.824;2023-01-28T05:32:46;77.25;58.75;36.50
55304;PMS7003;65692;51.378;19.824;2023-01-28T05:35:12;53.00;35.00;21.00
55304;PMS7003;65692;51.378;19.824;2023-01-28T05:37:39;69.50;53.00;37.50
55304;PMS7003;65692;51.378;19.824;2023-01-28T05:40:06;94.75;71.00;46.50
55304;PMS7003;65692;51.378;19.824;2023-01-28T05:42:32;93.25;67.50;43.00
55304;PMS7003;65692;51.378;19.824;2023-01-28T05:44:59;87.50;64.50;42.00
55304;PMS7003;65692;51.378;19.824;2023-01-28T05:47:26;74.00;54.00;36.00
55304;PMS7003;65692;51.378;19.824;2023-01-28T05:49:52;63.25;48.00;30.00
55304;PMS7003;65692;51.378;19.824;2023-01-28T05:52:18;62.50;48.50;33.00
55304;PMS7003;65692;51.378;19.824;2023-01-28T05:54:45;60.50;45.00;30.00
55304;PMS7003;65692;51.378;19.824;2023-01-28T05:57:11;53.50;42.75;30.00
55304;PMS7003;65692;51.378;19.824;2023-01-28T05:59:38;61.25;40.75;27.50
55304;PMS7003;65692;51.378;19.824;2023-01-28T06:02:04;50.00;32.50;22.50
55304;PMS7003;65692;51.378;19.824;2023-01-28T06:04:31;38.75;33.00;26.50
55304;PMS7003;65692;51.378;19.824;2023-01-28T06:06:57;51.50;38.75;26.75
55304;PMS7003;65692;51.378;19.824;2023-01-28T06:09:24;64.25;52.50;34.00
55304;PMS7003;65692;51.378;19.824;2023-01-28T06:11:50;66.75;48.00;32.75
55304;PMS7003;65692;51.378;19.824;2023-01-28T06:14:17;72.00;55.50;36.00
55304;PMS7003;65692;51.378;19.824;2023-01-28T06:16:43;72.50;54.50;33.50
55304;PMS7003;65692;51.378;19.824;2023-01-28T06:19:10;73.00;57.50;36.00
55304;PMS7003;65692;51.378;19.824;2023-01-28T06:21:36;79.50;60.25;41.00
55304;PMS7003;65692;51.378;19.824;2023-01-28T06:24:02;75.25;55.75;34.00
55304;PMS7003;65692;51.378;19.824;2023-01-28T06:26:29;59.25;48.25;33.75
55304;PMS7003;65692;51.378;19.824;2023-01-28T06:28:56;54.75;39.75;29.00
55304;PMS7003;65692;51.378;19.824;2023-01-28T06:31:22;58.50;44.00;28.50
55304;PMS7003;65692;51.378;19.824;2023-01-28T06:33:48;59.00;43.75;30.50
55304;PMS7003;65692;51.378;19.824;2023-01-28T06:36:15;70.75;50.00;34.00
55304;PMS7003;65692;51.378;19.824;2023-01-28T06:38:41;70.25;53.50;34.50
55304;PMS7003;65692;51.378;19.824;2023-01-28T06:41:07;68.00;50.00;33.75
55304;PMS7003;65692;51.378;19.824;2023-01-28T06:43:34;58.75;47.50;33.00
55304;PMS7003;65692;51.378;19.824;2023-01-28T06:46:00;80.25;59.25;38.25
55304;PMS7003;65692;51.378;19.824;2023-01-28T06:48:27;84.75;64.50;40.00
55304;PMS7003;65692;51.378;19.824;2023-01-28T06:50:53;91.25;63.75;42.50
55304;PMS7003;65692;51.378;19.824;2023-01-28T06:53:20;81.75;58.00;34.00
55304;PMS7003;65692;51.378;19.824;2023-01-28T06:55:47;101.50;74.25;48.50
55304;PMS7003;65692;51.378;19.824;2023-01-28T06:58:13;120.75;90.25;56.50
55304;PMS7003;65692;51.378;19.824;2023-01-28T07:00:40;106.50;82.00;52.00
55304;PMS7003;65692;51.378;19.824;2023-01-28T07:03:06;86.50;63.25;40.00
55304;PMS7003;65692;51.378;19.824;2023-01-28T07:05:33;93.50;69.50;43.75
55304;PMS7003;65692;51.378;19.824;2023-01-28T07:07:59;85.75;62.25;42.00
55304;PMS7003;65692;51.378;19.824;2023-01-28T07:10:27;88.50;61.00;40.75
55304;PMS7003;65692;51.378;19.824;2023-01-28T07:12:54;82.25;59.00;40.50
55304;PMS7003;65692;51.378;19.824;2023-01-28T07:15:20;80.25;62.50;41.75
55304;PMS7003;65692;51.378;19.824;2023-01-28T07:17:46;83.50;60.50;39.50
55304;PMS7003;65692;51.378;19.824;2023-01-28T07:20:13;53.50;42.75;29.25
55304;PMS7003;65692;51.378;19.824;2023-01-28T07:22:41;84.75;63.50;41.00
55304;PMS7003;65692;51.378;19.824;2023-01-28T07:25:08;74.00;56.75;39.25
55304;PMS7003;65692;51.378;19.824;2023-01-28T07:27:35;83.00;63.00;42.50
55304;PMS7003;65692;51.378;19.824;2023-01-28T07:30:02;81.75;58.75;41.00
55304;PMS7003;65692;51.378;19.824;2023-01-28T07:32:28;64.25;50.75;34.75
55304;PMS7003;65692;51.378;19.824;2023-01-28T07:34:54;60.50;50.75;35.25
55304;PMS7003;65692;51.378;19.824;2023-01-28T07:37:21;55.50;43.25;23.75
55304;PMS7003;65692;51.378;19.824;2023-01-28T07:39:48;72.75;54.00;37.25
55304;PMS7003;65692;51.378;19.824;2023-01-28T07:42:14;68.25;40.75;16.00
55304;PMS7003;65692;51.378;19.824;2023-01-28T07:44:41;81.25;61.00;40.25
55304;PMS7003;65692;51.378;19.824;2023-01-28T07:47:08;85.25;60.50;36.50
55304;PMS7003;65692;51.378;19.824;2023-01-28T07:49:34;81.75;58.00;36.00
55304;PMS7003;65692;51.378;19.824;2023-01-28T07:52:01;76.25;62.00;40.25
55304;PMS7003;65692;51.378;19.824;2023-01-28T07:54:27;88.50;63.25;41.25
55304;PMS7003;65692;51.378;19.824;2023-01-28T07:56:54;81.75;61.25;40.75
55304;PMS7003;65692;51.378;19.824;2023-01-28T07:59:21;71.50;56.50;39.25
55304;PMS7003;65692;51.378;19.824;2023-01-28T08:01:48;82.25;60.25;39.75
55304;PMS7003;65692;51.378;19.824;2023-01-28T08:04:14;92.75;70.75;48.00
55304;PMS7003;65692;51.378;19.824;2023-01-28T08:06:41;92.75;72.50;47.50
55304;PMS7003;65692;51.378;19.824;2023-01-28T08:09:07;105.25;76.50;50.50
55304;PMS7003;65692;51.378;19.824;2023-01-28T08:11:36;91.50;70.25;46.75
55304;PMS7003;65692;51.378;19.824;2023-01-28T08:14:02;81.25;56.50;39.00
55304;PMS7003;65692;51.378;19.824;2023-01-28T08:16:29;100.50;72.25;45.50
55304;PMS7003;65692;51.378;19.824;2023-01-28T08:18:56;135.25;114.25;74.25
55304;PMS7003;65692;51.378;19.824;2023-01-28T08:21:23;91.50;67.75;43.25
55304;PMS7003;65692;51.378;19.824;2023-01-28T08:23:49;81.00;59.00;38.25
55304;PMS7003;65692;51.378;19.824;2023-01-28T08:26:16;68.75;50.75;34.00
55304;PMS7003;65692;51.378;19.824;2023-01-28T08:28:44;76.25;56.50;38.25
55304;PMS7003;65692;51.378;19.824;2023-01-28T08:31:11;72.00;55.50;37.00
55304;PMS7003;65692;51.378;19.824;2023-01-28T08:33:37;68.75;50.00;33.25
55304;PMS7003;65692;51.378;19.824;2023-01-28T08:36:03;36.50;26.50;26.00
55304;PMS7003;65692;51.378;19.824;2023-01-28T08:38:30;79.75;62.00;39.50
55304;PMS7003;65692;51.378;19.824;2023-01-28T08:40:57;73.25;53.50;35.00
55304;PMS7003;65692;51.378;19.824;2023-01-28T08:43:24;72.25;55.25;37.00
55304;PMS7003;65692;51.378;19.824;2023-01-28T08:45:50;63.75;51.00;34.75
55304;PMS7003;65692;51.378;19.824;2023-01-28T08:48:17;60.50;48.75;33.00
55304;PMS7003;65692;51.378;19.824;2023-01-28T08:50:44;69.25;48.50;32.25
55304;PMS7003;65692;51.378;19.824;2023-01-28T08:53:12;60.50;43.50;26.00
55304;PMS7003;65692;51.378;19.824;2023-01-28T08:55:39;70.25;53.00;35.25
55304;PMS7003;65692;51.378;19.824;2023-01-28T08:58:06;101.25;74.75;47.00
55304;PMS7003;65692;51.378;19.824;2023-01-28T09:00:33;71.75;56.00;34.25
55304;PMS7003;65692;51.378;19.824;2023-01-28T09:03:00;67.00;49.25;33.25
55304;PMS7003;65692;51.378;19.824;2023-01-28T09:05:29;64.50;49.75;34.25
55304;PMS7003;65692;51.378;19.824;2023-01-28T09:08:02;89.00;67.25;44.25
55304;PMS7003;65692;51.378;19.824;2023-01-28T09:10:29;87.25;68.25;43.75
55304;PMS7003;65692;51.378;19.824;2023-01-28T09:12:55;102.50;76.75;48.00
55304;PMS7003;65692;51.378;19.824;2023-01-28T09:15:22;70.50;56.00;33.25
55304;PMS7003;65692;51.378;19.824;2023-01-28T09:17:48;72.75;52.50;33.00
55304;PMS7003;65692;51.378;19.824;2023-01-28T09:20:15;77.50;59.75;39.00
55304;PMS7003;65692;51.378;19.824;2023-01-28T09:22:42;72.25;53.00;33.25
55304;PMS7003;65692;51.378;19.824;2023-01-28T09:25:08;84.25;57.50;39.00
55304;PMS7003;65692;51.378;19.824;2023-01-28T09:27:35;70.25;52.00;33.75
55304;PMS7003;65692;51.378;19.824;2023-01-28T09:30:01;79.00;58.50;36.75
55304;PMS7003;65692;51.378;19.824;2023-01-28T09:32:28;93.75;66.50;40.75
55304;PMS7003;65692;51.378;19.824;2023-01-28T09:34:56;99.00;70.25;47.25
55304;PMS7003;65692;51.378;19.824;2023-01-28T09:37:22;102.50;76.75;47.00
55304;PMS7003;65692;51.378;19.824;2023-01-28T09:39:49;104.25;75.75;49.00
55304;PMS7003;65692;51.378;19.824;2023-01-28T09:47:11;81.50;60.50;39.50
55304;PMS7003;65692;51.378;19.824;2023-01-28T09:49:43;84.25;63.50;43.25
55304;PMS7003;65692;51.378;19.824;2023-01-28T09:52:11;75.25;56.75;39.50
55304;PMS7003;65692;51.378;19.824;2023-01-28T09:54:41;77.50;60.50;39.00
55304;PMS7003;65692;51.378;19.824;2023-01-28T09:57:13;79.75;62.75;42.50
55304;PMS7003;65692;51.378;19.824;2023-01-28T09:59:42;75.75;58.75;36.75
55304;PMS7003;65692;51.378;19.824;2023-01-28T10:10:17;86.25;63.00;40.75
55304;PMS7003;65692;51.378;19.824;2023-01-28T10:17:50;102.75;75.00;47.25
55304;PMS7003;65692;51.378;19.824;2023-01-28T10:20:24;106.25;79.25;49.00
55304;PMS7003;65692;51.378;19.824;2023-01-28T10:25:23;93.50;71.50;45.00
55304;PMS7003;65692;51.378;19.824;2023-01-28T10:27:50;91.00;67.00;43.25
55304;PMS7003;65692;51.378;19.824;2023-01-28T10:30:24;91.25;69.25;43.75
55304;PMS7003;65692;51.378;19.824;2023-01-28T10:35:17;102.50;73.25;49.00
55304;PMS7003;65692;51.378;19.824;2023-01-28T10:37:44;107.00;76.75;49.00
55304;PMS7003;65692;51.378;19.824;2023-01-28T10:40:15;96.75;68.25;45.75
55304;PMS7003;65692;51.378;19.824;2023-01-28T10:42:42;86.00;63.50;39.00
55304;PMS7003;65692;51.378;19.824;2023-01-28T10:47:44;86.25;67.50;43.25
55304;PMS7003;65692;51.378;19.824;2023-01-28T10:50:22;89.75;66.25;42.75
55304;PMS7003;65692;51.378;19.824;2023-01-28T10:52:53;86.50;67.00;44.50
55304;PMS7003;65692;51.378;19.824;2023-01-28T10:55:19;92.25;70.00;45.75
55304;PMS7003;65692;51.378;19.824;2023-01-28T10:57:46;93.50;66.00;41.50
55304;PMS7003;65692;51.378;19.824;2023-01-28T11:02:43;91.75;67.50;43.00
55304;PMS7003;65692;51.378;19.824;2023-01-28T11:05:16;90.75;67.50;43.00
55304;PMS7003;65692;51.378;19.824;2023-01-28T11:07:43;95.25;72.50;46.75
55304;PMS7003;65692;51.378;19.824;2023-01-28T11:10:29;98.25;72.75;46.00
55304;PMS7003;65692;51.378;19.824;2023-01-28T11:12:57;106.50;70.75;46.00
55304;PMS7003;65692;51.378;19.824;2023-01-28T11:15:24;98.50;73.75;46.00
55304;PMS7003;65692;51.378;19.824;2023-01-28T11:17:54;100.50;70.50;43.00
55304;PMS7003;65692;51.378;19.824;2023-01-28T11:20:22;93.25;67.25;45.00
55304;PMS7003;65692;51.378;19.824;2023-01-28T11:22:50;91.50;69.75;45.50
55304;PMS7003;65692;51.378;19.824;2023-01-28T11:27:50;96.75;75.00;47.00
55304;PMS7003;65692;51.378;19.824;2023-01-28T11:30:31;104.00;71.50;47.00
55304;PMS7003;65692;51.378;19.824;2023-01-28T11:33:04;109.75;83.25;51.00
55304;PMS7003;65692;51.378;19.824;2023-01-28T11:35:33;103.75;77.00;48.75
55304;PMS7003;65692;51.378;19.824;2023-01-28T11:37:59;97.00;72.25;47.50
55304;PMS7003;65692;51.378;19.824;2023-01-28T11:40:26;113.00;89.00;52.25
55304;PMS7003;65692;51.378;19.824;2023-01-28T11:42:53;108.25;84.00;52.00
55304;PMS7003;65692;51.378;19.824;2023-01-28T11:45:48;115.00;89.50;55.50
55304;PMS7003;65692;51.378;19.824;2023-01-28T11:48:13;116.75;96.00;56.75
55304;PMS7003;65692;51.378;19.824;2023-01-28T11:50:45;147.50;109.75;65.75
55304;PMS7003;65692;51.378;19.824;2023-01-28T11:53:27;124.00;106.25;65.25
55304;PMS7003;65692;51.378;19.824;2023-01-28T12:06:45;160.67;130.33;76.67
55304;PMS7003;65692;51.378;19.824;2023-01-28T12:17:03;93.00;71.75;45.50
55304;PMS7003;65692;51.378;19.824;2023-01-28T12:19:38;105.25;80.25;53.25
55304;PMS7003;65692;51.378;19.824;2023-01-28T12:30:02;89.75;66.00;44.00
55304;PMS7003;65692;51.378;19.824;2023-01-28T12:40:21;62.50;42.50;32.00
55304;PMS7003;65692;51.378;19.824;2023-01-28T12:42:53;101.25;76.00;47.00
55304;PMS7003;65692;51.378;19.824;2023-01-28T12:45:23;67.00;50.50;34.25
55304;PMS7003;65692;51.378;19.824;2023-01-28T12:47:53;55.00;44.25;28.00
55304;PMS7003;65692;51.378;19.824;2023-01-28T12:50:23;65.00;45.00;28.25
55304;PMS7003;65692;51.378;19.824;2023-01-28T12:53:02;66.00;49.25;32.50
55304;PMS7003;65692;51.378;19.824;2023-01-28T12:58:00;42.50;31.50;22.50
55304;PMS7003;65692;51.378;19.824;2023-01-28T13:00:39;65.25;48.25;31.75
55304;PMS7003;65692;51.378;19.824;2023-01-28T13:03:18;51.75;42.50;27.50
55304;PMS7003;65692;51.378;19.824;2023-01-28T13:05:59;44.00;36.00;23.75
55304;PMS7003;65692;51.378;19.824;2023-01-28T13:08:28;48.75;43.25;28.75
55304;PMS7003;65692;51.378;19.824;2023-01-28T13:10:58;62.00;41.00;28.00
55304;PMS7003;65692;51.378;19.824;2023-01-28T13:13:29;44.50;33.00;23.25
55304;PMS7003;65692;51.378;19.824;2023-01-28T13:15:55;50.00;44.25;28.00
55304;PMS7003;65692;51.378;19.824;2023-01-28T13:18:29;48.50;35.25;23.50
55304;PMS7003;65692;51.378;19.824;2023-01-28T13:20:57;66.00;48.50;32.25
55304;PMS7003;65692;51.378;19.824;2023-01-28T13:26:07;38.00;32.50;20.00
55304;PMS7003;65692;51.378;19.824;2023-01-28T13:28:34;42.00;31.33;22.33
55304;PMS7003;65692;51.378;19.824;2023-01-28T13:31:07;62.00;44.25;27.25
55304;PMS7003;65692;51.378;19.824;2023-01-28T13:33:35;46.25;33.75;23.75
55304;PMS7003;65692;51.378;19.824;2023-01-28T13:36:21;63.75;45.25;32.75
55304;PMS7003;65692;51.378;19.824;2023-01-28T13:38:58;34.33;26.67;17.00
55304;PMS7003;65692;51.378;19.824;2023-01-28T13:41:36;61.00;42.50;24.75
55304;PMS7003;65692;51.378;19.824;2023-01-28T13:44:02;59.25;46.25;31.00
55304;PMS7003;65692;51.378;19.824;2023-01-28T13:46:29;64.50;47.25;32.25
55304;PMS7003;65692;51.378;19.824;2023-01-28T13:48:56;67.75;52.50;34.25
55304;PMS7003;65692;51.378;19.824;2023-01-28T13:51:26;51.25;42.00;28.00
55304;PMS7003;65692;51.378;19.824;2023-01-28T13:56:21;46.00;36.00;24.50
55304;PMS7003;65692;51.378;19.824;2023-01-28T13:59:04;42.75;35.50;25.00
55304;PMS7003;65692;51.378;19.824;2023-01-28T14:01:49;43.75;37.25;27.75
55304;PMS7003;65692;51.378;19.824;2023-01-28T14:12:17;43.75;35.50;25.25
55304;PMS7003;65692;51.378;19.824;2023-01-28T14:19:57;64.00;47.25;32.25
55304;PMS7003;65692;51.378;19.824;2023-01-28T14:22:25;69.50;50.50;34.00
55304;PMS7003;65692;51.378;19.824;2023-01-28T14:24:51;59.75;43.25;29.25
55304;PMS7003;65692;51.378;19.824;2023-01-28T14:27:31;41.00;33.00;23.00
55304;PMS7003;65692;51.378;19.824;2023-01-28T14:32:32;57.75;40.50;23.00
55304;PMS7003;65692;51.378;19.824;2023-01-28T14:35:00;40.25;32.00;21.00
55304;PMS7003;65692;51.378;19.824;2023-01-28T14:37:30;49.75;42.75;27.25
55304;PMS7003;65692;51.378;19.824;2023-01-28T14:40:02;53.00;42.50;28.25
55304;PMS7003;65692;51.378;19.824;2023-01-28T14:42:30;60.00;47.50;33.00
55304;PMS7003;65692;51.378;19.824;2023-01-28T14:58:32;47.50;45.25;32.75
55304;PMS7003;65692;51.378;19.824;2023-01-28T15:01:00;52.75;40.50;28.50
55304;PMS7003;65692;51.378;19.824;2023-01-28T15:03:27;71.25;55.25;36.75
55304;PMS7003;65692;51.378;19.824;2023-01-28T15:06:04;45.25;43.00;29.75
55304;PMS7003;65692;51.378;19.824;2023-01-28T15:08:31;31.25;22.50;15.25
55304;PMS7003;65692;51.378;19.824;2023-01-28T15:11:00;55.75;43.00;31.00
55304;PMS7003;65692;51.378;19.824;2023-01-28T15:13:28;58.50;45.75;32.75
55304;PMS7003;65692;51.378;19.824;2023-01-28T15:15:55;42.00;34.00;23.50
55304;PMS7003;65692;51.378;19.824;2023-01-28T15:18:29;50.75;35.00;25.25
55304;PMS7003;65692;51.378;19.824;2023-01-28T15:20:57;48.00;36.75;25.25
55304;PMS7003;65692;51.378;19.824;2023-01-28T15:23:26;58.25;50.75;34.00
55304;PMS7003;65692;51.378;19.824;2023-01-28T15:25:54;45.75;36.75;26.00
55304;PMS7003;65692;51.378;19.824;2023-01-28T15:28:32;45.25;36.25;24.00
55304;PMS7003;65692;51.378;19.824;2023-01-28T15:30:59;42.50;32.50;21.25
55304;PMS7003;65692;51.378;19.824;2023-01-28T15:33:25;48.00;37.50;24.00
55304;PMS7003;65692;51.378;19.824;2023-01-28T15:35:53;39.50;34.25;24.25
55304;PMS7003;65692;51.378;19.824;2023-01-28T15:38:20;41.75;31.75;22.00
55304;PMS7003;65692;51.378;19.824;2023-01-28T15:40:48;46.75;42.25;28.75
55304;PMS7003;65692;51.378;19.824;2023-01-28T15:43:19;53.75;43.00;30.50